createdAt,value
2022-09-02T00:01:56.020Z,11.80
2022-09-02T00:04:26.132Z,11.70
2022-09-02T00:06:54.405Z,11.70
2022-09-02T00:09:25.285Z,11.80
2022-09-02T00:11:55.003Z,11.80
2022-09-02T00:14:29.751Z,11.70
2022-09-02T00:17:00.760Z,11.70
2022-09-02T00:19:29.644Z,11.60
2022-09-02T00:22:00.492Z,11.50
2022-09-02T00:24:28.600Z,11.50
2022-09-02T00:26:56.849Z,11.50
2022-09-02T00:29:26.358Z,11.60
2022-09-02T00:31:54.438Z,11.60
2022-09-02T00:34:22.510Z,11.60
2022-09-02T00:36:50.441Z,11.60
2022-09-02T00:39:19.467Z,11.60
2022-09-02T00:41:47.599Z,11.60
2022-09-02T00:44:17.466Z,11.50
2022-09-02T00:46:45.869Z,11.50
2022-09-02T00:49:16.649Z,11.50
2022-09-02T00:51:53.099Z,11.50
2022-09-02T00:54:24.266Z,11.40
2022-09-02T00:56:55.591Z,11.40
2022-09-02T00:59:35.060Z,11.40
2022-09-02T01:02:03.316Z,11.30
2022-09-02T01:04:31.085Z,11.30
2022-09-02T01:06:58.846Z,11.30
2022-09-02T01:09:26.501Z,11.20
2022-09-02T01:11:55.077Z,11.20
2022-09-02T01:14:24.205Z,11.10
2022-09-02T01:17:02.399Z,11.10
2022-09-02T01:19:44.775Z,11.10
2022-09-02T01:22:19.200Z,11.10
2022-09-02T01:24:47.480Z,11.10
2022-09-02T01:27:20.779Z,11.10
2022-09-02T01:29:53.113Z,11.10
2022-09-02T01:32:22.743Z,11.10
2022-09-02T01:34:51.035Z,11.10
2022-09-02T01:37:19.481Z,11.10
2022-09-02T01:39:47.711Z,11.00
2022-09-02T01:42:16.056Z,11.00
2022-09-02T01:44:44.202Z,11.00
2022-09-02T01:47:14.090Z,11.00
2022-09-02T01:49:42.294Z,11.00
2022-09-02T01:52:11.709Z,11.00
2022-09-02T01:54:40.342Z,11.00
2022-09-02T01:57:08.998Z,11.10
2022-09-02T01:59:37.186Z,11.10
2022-09-02T02:02:05.444Z,11.00
2022-09-02T02:04:34.065Z,11.10
2022-09-02T02:07:04.886Z,11.10
2022-09-02T02:09:32.554Z,11.10
2022-09-02T02:12:00.267Z,11.10
2022-09-02T02:14:30.852Z,11.10
2022-09-02T02:16:58.865Z,11.10
2022-09-02T02:19:26.960Z,11.00
2022-09-02T02:21:54.816Z,11.00
2022-09-02T02:24:22.678Z,11.00
2022-09-02T02:26:50.343Z,10.90
2022-09-02T02:29:20.212Z,11.00
2022-09-02T02:31:49.656Z,11.00
2022-09-02T02:34:18.080Z,11.00
2022-09-02T02:36:47.155Z,11.00
2022-09-02T02:39:15.132Z,11.00
2022-09-02T02:41:44.739Z,11.00
2022-09-02T02:44:14.073Z,10.90
2022-09-02T02:46:42.774Z,10.90
2022-09-02T02:49:10.943Z,10.90
2022-09-02T02:51:38.852Z,10.90
2022-09-02T02:54:07.453Z,11.00
2022-09-02T02:56:35.673Z,10.90
2022-09-02T02:59:04.394Z,10.90
2022-09-02T03:01:34.384Z,10.80
2022-09-02T03:04:02.304Z,10.60
2022-09-02T03:06:30.171Z,10.70
2022-09-02T03:08:58.855Z,10.60
2022-09-02T03:11:28.563Z,10.60
2022-09-02T03:13:57.851Z,10.60
2022-09-02T03:16:25.842Z,10.60
2022-09-02T03:18:55.012Z,10.70
2022-09-02T03:21:22.709Z,10.70
2022-09-02T03:23:50.466Z,10.80
2022-09-02T03:26:21.645Z,10.80
2022-09-02T03:28:50.595Z,10.80
2022-09-02T03:31:21.601Z,10.80
2022-09-02T03:33:49.911Z,10.80
2022-09-02T03:36:21.887Z,10.70
2022-09-02T03:38:50.724Z,10.80
2022-09-02T03:41:18.659Z,10.70
2022-09-02T03:43:48.526Z,10.60
2022-09-02T03:46:17.805Z,10.60
2022-09-02T03:48:46.267Z,10.60
2022-09-02T03:51:15.144Z,10.70
2022-09-02T03:53:42.786Z,10.60
2022-09-02T03:56:13.191Z,10.60
2022-09-02T03:58:46.559Z,10.50
2022-09-02T04:01:20.841Z,10.50
2022-09-02T04:03:49.592Z,10.50
2022-09-02T04:06:20.824Z,10.50
2022-09-02T04:08:49.921Z,10.40
2022-09-02T04:11:21.249Z,10.50
2022-09-02T04:13:52.940Z,10.50
2022-09-02T04:16:28.870Z,10.50
2022-09-02T04:19:04.191Z,10.50
2022-09-02T04:21:37.799Z,10.40
2022-09-02T04:24:07.132Z,10.30
2022-09-02T04:26:34.980Z,10.30
2022-09-02T04:29:04.023Z,10.30
2022-09-02T04:31:36.425Z,10.30
2022-09-02T04:34:06.899Z,10.20
2022-09-02T04:36:35.244Z,10.20
2022-09-02T04:39:09.293Z,10.20
2022-09-02T04:41:37.814Z,10.30
2022-09-02T04:44:11.339Z,10.30
2022-09-02T04:46:42.226Z,10.20
2022-09-02T04:49:14.707Z,10.20
2022-09-02T04:51:44.213Z,10.20
2022-09-02T04:54:12.009Z,10.20
2022-09-02T04:56:42.837Z,10.20
2022-09-02T04:59:11.186Z,10.20
2022-09-02T05:01:43.971Z,10.30
2022-09-02T05:04:17.655Z,10.30
2022-09-02T05:06:49.424Z,10.30
2022-09-02T05:09:20.377Z,10.30
2022-09-02T05:11:58.675Z,10.30
2022-09-02T05:14:32.921Z,10.30
2022-09-02T05:17:07.635Z,10.40
2022-09-02T05:19:38.701Z,10.40
2022-09-02T05:22:06.397Z,10.40
2022-09-02T05:24:38.037Z,10.40
2022-09-02T05:27:10.016Z,10.50
2022-09-02T05:29:38.225Z,10.50
2022-09-02T05:32:08.250Z,10.50
2022-09-02T05:34:38.386Z,10.60
2022-09-02T05:37:06.120Z,10.50
2022-09-02T05:39:35.956Z,10.60
2022-09-02T05:42:04.736Z,10.60
2022-09-02T05:44:34.353Z,10.70
2022-09-02T05:47:04.035Z,10.80
2022-09-02T05:49:31.727Z,10.90
2022-09-02T05:52:12.372Z,10.90
2022-09-02T05:54:52.441Z,11.00
2022-09-02T05:57:22.774Z,11.10
2022-09-02T05:59:58.118Z,11.30
2022-09-02T06:02:42.304Z,11.40
2022-09-02T06:05:17.559Z,11.60
2022-09-02T06:07:50.370Z,11.70
2022-09-02T06:10:21.524Z,11.80
2022-09-02T06:12:50.615Z,12.00
2022-09-02T06:15:21.760Z,12.20
2022-09-02T06:17:50.061Z,12.40
2022-09-02T06:20:18.070Z,12.60
2022-09-02T06:22:48.639Z,12.60
2022-09-02T06:25:17.111Z,12.90
2022-09-02T06:27:44.788Z,13.10
2022-09-02T06:30:13.619Z,13.10
2022-09-02T06:32:41.735Z,13.30
2022-09-02T06:35:11.396Z,13.50
2022-09-02T06:37:41.453Z,13.60
2022-09-02T06:40:12.216Z,13.80
2022-09-02T06:42:41.663Z,13.90
2022-09-02T06:45:26.572Z,14.10
2022-09-02T06:47:56.602Z,14.20
2022-09-02T06:50:24.308Z,14.20
2022-09-02T06:52:55.241Z,14.00
2022-09-02T06:55:24.102Z,14.10
2022-09-02T06:57:52.699Z,14.20
2022-09-02T07:00:22.078Z,14.40
2022-09-02T07:03:10.211Z,14.60
2022-09-02T07:05:40.288Z,14.30
2022-09-02T07:08:08.971Z,14.40
2022-09-02T07:10:41.625Z,14.50
2022-09-02T07:13:19.194Z,14.50
2022-09-02T07:15:52.315Z,14.40
2022-09-02T07:18:35.541Z,14.40
2022-09-02T07:21:05.332Z,14.50
2022-09-02T07:23:47.557Z,14.70
2022-09-02T07:26:27.116Z,14.80
2022-09-02T07:29:30.220Z,14.80
2022-09-02T07:32:04.745Z,14.90
2022-09-02T07:34:36.150Z,15.00
2022-09-02T07:37:11.282Z,14.90
2022-09-02T07:39:40.846Z,15.10
2022-09-02T07:42:15.589Z,15.10
2022-09-02T07:45:08.211Z,15.10
2022-09-02T07:47:38.008Z,15.10
2022-09-02T07:50:16.684Z,15.20
2022-09-02T07:52:50.660Z,15.40
2022-09-02T07:55:35.852Z,15.50
2022-09-02T07:58:41.906Z,15.60
2022-09-02T08:01:10.704Z,15.70
2022-09-02T08:03:45.060Z,15.50
2022-09-02T08:06:33.934Z,15.60
2022-09-02T08:09:18.034Z,15.70
2022-09-02T08:11:47.868Z,15.80
2022-09-02T08:14:20.466Z,16.00
2022-09-02T08:16:52.245Z,16.00
2022-09-02T08:19:21.499Z,16.10
2022-09-02T08:21:49.323Z,16.00
2022-09-02T08:24:20.824Z,16.10
2022-09-02T08:26:52.817Z,16.20
2022-09-02T08:29:26.043Z,16.20
2022-09-02T08:31:57.400Z,16.30
2022-09-02T08:34:29.220Z,16.30
2022-09-02T08:36:59.554Z,16.30
2022-09-02T08:39:32.319Z,16.20
2022-09-02T08:44:56.436Z,16.20
2022-09-02T08:47:35.647Z,16.40
2022-09-02T08:50:12.229Z,16.50
2022-09-02T08:52:57.455Z,16.70
2022-09-02T08:55:33.665Z,16.70
2022-09-02T08:58:15.176Z,16.70
2022-09-02T09:09:14.330Z,17.10
2022-09-02T09:24:11.856Z,16.90
2022-09-02T09:26:45.550Z,17.00
2022-09-02T09:29:50.494Z,17.00
2022-09-02T09:33:05.584Z,17.20
2022-09-02T09:40:37.679Z,17.50
2022-09-02T09:43:15.357Z,17.50
2022-09-02T09:45:52.160Z,17.50
2022-09-02T09:48:37.710Z,17.70
2022-09-02T09:52:23.110Z,17.70
2022-09-02T09:59:43.860Z,17.90
2022-09-02T10:02:31.133Z,17.90
2022-09-02T10:11:25.487Z,17.90
2022-09-02T10:19:18.939Z,18.00
2022-09-02T10:21:56.135Z,18.00
2022-09-02T10:24:59.498Z,17.90
2022-09-02T10:28:23.853Z,18.10
2022-09-02T10:31:46.067Z,18.00
2022-09-02T10:34:57.754Z,18.20
2022-09-02T10:38:35.299Z,18.20
2022-09-02T10:49:14.372Z,18.50
2022-09-02T10:52:31.158Z,18.60
2022-09-02T11:04:41.750Z,18.70
2022-09-02T11:08:15.631Z,18.60
2022-09-02T11:14:22.310Z,18.70
2022-09-02T11:17:35.791Z,18.80
2022-09-02T11:20:18.565Z,18.80
2022-09-02T11:23:56.829Z,18.80
2022-09-02T11:26:37.498Z,18.70
2022-09-02T11:30:17.015Z,18.70
2022-09-02T11:33:36.950Z,18.90
2022-09-02T11:45:09.746Z,18.90
2022-09-02T12:01:26.902Z,18.90
2022-09-02T12:04:55.741Z,18.90
2022-09-02T12:21:35.462Z,18.90
2022-09-02T12:29:20.649Z,19.20
2022-09-02T12:41:27.669Z,19.10
2022-09-02T12:53:40.206Z,19.20
2022-09-02T13:07:14.389Z,19.30
2022-09-02T17:36:21.593Z,17.60
2022-09-02T17:38:49.460Z,17.30
2022-09-02T17:41:36.689Z,17.00
2022-09-02T17:44:04.657Z,16.70
2022-09-02T17:46:32.418Z,16.50
2022-09-02T17:49:16.277Z,16.30
2022-09-02T17:51:45.349Z,16.20
2022-09-02T17:54:14.849Z,15.90
2022-09-02T17:56:54.793Z,15.60
2022-09-02T17:59:50.841Z,15.50
2022-09-02T18:02:37.587Z,15.30
2022-09-02T18:05:36.763Z,15.20
2022-09-02T18:08:22.409Z,15.00
2022-09-02T18:10:57.538Z,14.90
2022-09-02T18:13:47.635Z,14.90
2022-09-02T18:16:51.685Z,14.70
2022-09-02T18:19:38.414Z,14.60
2022-09-02T18:22:35.846Z,14.40
2022-09-02T18:25:43.040Z,14.30
2022-09-02T18:28:38.631Z,14.30
2022-09-02T18:31:18.295Z,14.30
2022-09-02T18:34:05.489Z,14.30
2022-09-02T18:36:56.416Z,14.20
2022-09-02T18:40:00.657Z,14.20
2022-09-02T18:42:48.496Z,14.20
2022-09-02T18:45:28.412Z,14.10
2022-09-02T18:48:05.285Z,14.10
2022-09-02T18:50:56.958Z,14.10
2022-09-02T18:53:30.135Z,14.00
2022-09-02T18:56:05.034Z,14.00
2022-09-02T18:58:51.241Z,13.90
2022-09-02T19:01:30.619Z,13.90
2022-09-02T19:03:59.609Z,13.90
2022-09-02T19:06:34.199Z,13.80
2022-09-02T19:09:05.913Z,13.80
2022-09-02T19:11:35.813Z,13.60
2022-09-02T19:14:28.679Z,13.40
2022-09-02T19:16:58.452Z,13.30
2022-09-02T19:19:29.942Z,13.30
2022-09-02T19:22:03.795Z,13.30
2022-09-02T19:24:42.812Z,13.20
2022-09-02T19:27:15.260Z,13.10
2022-09-02T19:29:47.992Z,13.00
2022-09-02T19:32:19.490Z,12.90
2022-09-02T19:34:47.274Z,12.70
2022-09-02T19:37:15.000Z,12.60
2022-09-02T19:39:42.855Z,12.60
2022-09-02T19:42:10.908Z,12.60
2022-09-02T19:44:40.077Z,12.60
2022-09-02T19:48:02.743Z,12.60
2022-09-02T19:49:59.395Z,12.60
2022-09-02T19:52:27.655Z,12.60
2022-09-02T19:54:55.322Z,12.70
2022-09-02T19:57:23.136Z,12.60
2022-09-02T19:59:51.924Z,12.50
2022-09-02T20:02:19.608Z,12.40
2022-09-02T20:04:47.740Z,12.30
2022-09-02T20:07:15.425Z,12.30
2022-09-02T20:09:43.111Z,12.20
2022-09-02T20:12:14.362Z,12.40
2022-09-02T20:14:42.026Z,12.40
2022-09-02T20:17:14.890Z,12.30
2022-09-02T20:19:43.510Z,12.30
2022-09-02T20:22:14.862Z,12.30
2022-09-02T20:24:43.032Z,12.40
2022-09-02T20:27:13.706Z,12.40
2022-09-02T20:30:30.213Z,12.40
2022-09-02T20:33:15.999Z,12.30
2022-09-02T20:35:58.503Z,12.40
2022-09-02T20:38:29.123Z,12.50
2022-09-02T20:41:11.798Z,12.40
2022-09-02T20:44:07.361Z,12.40
2022-09-02T20:46:49.134Z,12.30
2022-09-02T20:49:45.594Z,12.20
2022-09-02T20:52:33.095Z,12.10
2022-09-02T20:55:17.425Z,11.90
2022-09-02T20:58:13.997Z,11.90
2022-09-02T21:01:06.688Z,11.90
2022-09-02T21:03:57.892Z,11.90
2022-09-02T21:06:29.660Z,11.90
2022-09-02T21:09:17.282Z,11.90
2022-09-02T21:12:03.249Z,11.90
2022-09-02T21:14:45.554Z,11.90
2022-09-02T21:17:21.382Z,11.80
2022-09-02T21:20:38.532Z,11.60
2022-09-02T21:23:39.776Z,11.50
2022-09-02T21:26:07.748Z,11.50
2022-09-02T21:28:44.043Z,11.50
2022-09-02T21:31:26.211Z,11.50
2022-09-02T21:33:59.183Z,11.50
2022-09-02T21:36:30.418Z,11.50
2022-09-02T21:38:59.002Z,11.40
2022-09-02T21:41:34.144Z,11.30
2022-09-02T21:44:38.804Z,11.40
2022-09-02T21:47:15.403Z,11.40
2022-09-02T21:50:24.242Z,11.40
2022-09-02T21:53:22.448Z,11.40
2022-09-02T21:56:11.513Z,11.50
2022-09-02T21:59:03.213Z,11.40
2022-09-02T22:01:44.616Z,11.30
2022-09-02T22:04:40.240Z,11.10
2022-09-02T22:07:31.380Z,11.20
2022-09-02T22:10:11.293Z,11.20
2022-09-02T22:12:41.421Z,11.30
2022-09-02T22:15:26.541Z,11.30
2022-09-02T22:18:04.768Z,11.20
2022-09-02T22:20:39.214Z,11.20
2022-09-02T22:23:26.198Z,11.10
2022-09-02T22:26:08.423Z,10.90
2022-09-02T22:28:40.946Z,10.80
2022-09-02T22:31:13.200Z,10.90
2022-09-02T22:33:49.073Z,11.00
2022-09-02T22:36:35.021Z,11.00
2022-09-02T22:39:03.210Z,11.10
2022-09-02T22:41:33.822Z,11.20
2022-09-02T22:44:11.343Z,11.10
2022-09-02T22:47:18.499Z,11.10
2022-09-02T22:50:10.705Z,11.30
2022-09-02T22:52:54.837Z,11.40
2022-09-02T22:55:57.588Z,11.50
2022-09-02T22:58:35.527Z,11.70
2022-09-02T23:01:40.410Z,11.80
2022-09-02T23:04:46.394Z,11.80
2022-09-02T23:07:14.615Z,11.80
2022-09-02T23:09:43.740Z,11.80
2022-09-02T23:12:30.053Z,11.80
2022-09-02T23:15:11.027Z,11.90
2022-09-02T23:17:47.486Z,12.00
2022-09-02T23:20:28.284Z,12.20
2022-09-02T23:23:00.783Z,12.20
2022-09-02T23:25:53.223Z,12.20
2022-09-02T23:28:37.427Z,12.20
2022-09-02T23:31:22.257Z,12.20
2022-09-02T23:34:03.235Z,12.10
2022-09-02T23:36:47.441Z,12.10
2022-09-02T23:39:25.132Z,12.10
2022-09-02T23:42:00.741Z,12.10
2022-09-02T23:44:31.828Z,12.10
2022-09-02T23:47:31.611Z,12.20
2022-09-02T23:50:17.338Z,12.20
2022-09-02T23:53:17.962Z,12.20
2022-09-02T23:55:51.152Z,12.20
2022-09-02T23:58:43.577Z,12.30
